Danville, Vermont
Current Conditions -  °F | °C
As of 8:35 PM on Saturday 25 Oct 2014 (Local Time) from KCDA Reporting Station
Light Rain Light Rain  
Wind Chill: 49°   Ceiling: 3900
Heat Index: 49°   Visibility: 7mi
Dew Point: 44°   Wind: 0mph
Humidity: 83%   Direction: NA
Pressure: 29.51"   Gusts: NA
Location:  44.41°N, 72.14°W
Report Text: KCDA 260035Z AUTO 00000KT 7SM -RA BKN039 OVC048 10/07 A2951 RMK AO2 T00950067
Loading
Personal Weather Stations






























Interactive Weather Map
Tropical Storm Tracking
New forecast layout! Learn more

10-Day Weather Forecast

Advertisements
Track Severe Weather on mobile